sensor_id;sensor_type;location;lat;lon;timestamp;pressure;altitude;pressure_sealevel;temperature;humidity
21129;BME280;10722;51.910;8.352;2023-11-19T00:02:41;100248.88;;;8.85;100.00
21129;BME280;10722;51.910;8.352;2023-11-19T00:05:27;100238.56;;;8.85;100.00
21129;BME280;10722;51.910;8.352;2023-11-19T00:08:12;100238.66;;;8.91;100.00
21129;BME280;10722;51.910;8.352;2023-11-19T00:10:57;100235.22;;;8.92;100.00
21129;BME280;10722;51.910;8.352;2023-11-19T00:13:43;100232.72;;;8.95;100.00
21129;BME280;10722;51.910;8.352;2023-11-19T00:16:28;100230.16;;;8.95;100.00
21129;BME280;10722;51.910;8.352;2023-11-19T00:19:12;100238.75;;;8.97;100.00
21129;BME280;10722;51.910;8.352;2023-11-19T00:21:57;100228.56;;;9.05;100.00
21129;BME280;10722;51.910;8.352;2023-11-19T00:24:42;100232.91;;;9.08;100.00
21129;BME280;10722;51.910;8.352;2023-11-19T00:27:27;100228.59;;;9.07;100.00
21129;BME280;10722;51.910;8.352;2023-11-19T00:30:13;100222.63;;;9.11;100.00
21129;BME280;10722;51.910;8.352;2023-11-19T00:32:59;100212.34;;;9.12;100.00
21129;BME280;10722;51.910;8.352;2023-11-19T00:35:44;100226.06;;;9.11;100.00
21129;BME280;10722;51.910;8.352;2023-11-19T00:38:29;100219.28;;;9.16;100.00
21129;BME280;10722;51.910;8.352;2023-11-19T00:41:15;100207.28;;;9.18;100.00
21129;BME280;10722;51.910;8.352;2023-11-19T00:44:00;100206.47;;;9.21;100.00
21129;BME280;10722;51.910;8.352;2023-11-19T00:46:44;100211.66;;;9.24;100.00
21129;BME280;10722;51.910;8.352;2023-11-19T00:49:30;100201.34;;;9.24;100.00
21129;BME280;10722;51.910;8.352;2023-11-19T00:52:16;100204.81;;;9.28;100.00
21129;BME280;10722;51.910;8.352;2023-11-19T00:55:02;100200.56;;;9.30;100.00
21129;BME280;10722;51.910;8.352;2023-11-19T00:57:47;100202.28;;;9.29;100.00
21129;BME280;10722;51.910;8.352;2023-11-19T01:00:32;100191.09;;;9.32;100.00
21129;BME280;10722;51.910;8.352;2023-11-19T01:03:17;100192.81;;;9.30;100.00
21129;BME280;10722;51.910;8.352;2023-11-19T01:06:03;100188.50;;;9.32;100.00
21129;BME280;10722;51.910;8.352;2023-11-19T01:08:48;100186.09;;;9.41;100.00
21129;BME280;10722;51.910;8.352;2023-11-19T01:11:33;100186.94;;;9.43;100.00
21129;BME280;10722;51.910;8.352;2023-11-19T01:14:19;100178.38;;;9.46;100.00
21129;BME280;10722;51.910;8.352;2023-11-19T01:17:04;100182.75;;;9.50;100.00
21129;BME280;10722;51.910;8.352;2023-11-19T01:19:49;100186.25;;;9.53;100.00
21129;BME280;10722;51.910;8.352;2023-11-19T01:22:34;100179.38;;;9.57;100.00
21129;BME280;10722;51.910;8.352;2023-11-19T01:25:19;100188.94;;;9.62;100.00
21129;BME280;10722;51.910;8.352;2023-11-19T01:28:05;100180.34;;;9.63;100.00
21129;BME280;10722;51.910;8.352;2023-11-19T01:30:53;100180.34;;;9.65;100.00
21129;BME280;10722;51.910;8.352;2023-11-19T01:33:39;100173.56;;;9.73;100.00
21129;BME280;10722;51.910;8.352;2023-11-19T01:36:24;100188.25;;;9.76;100.00
21129;BME280;10722;51.910;8.352;2023-11-19T01:39:09;100164.19;;;9.80;100.00
21129;BME280;10722;51.910;8.352;2023-11-19T01:41:54;100159.06;;;9.83;100.00
21129;BME280;10722;51.910;8.352;2023-11-19T01:44:39;100167.69;;;9.85;100.00
21129;BME280;10722;51.910;8.352;2023-11-19T01:47:27;100161.69;;;9.86;100.00
21129;BME280;10722;51.910;8.352;2023-11-19T01:50:14;100148.84;;;9.95;100.00
21129;BME280;10722;51.910;8.352;2023-11-19T01:52:59;100150.59;;;9.98;100.00
21129;BME280;10722;51.910;8.352;2023-11-19T01:55:46;100148.88;;;9.98;100.00
21129;BME280;10722;51.910;8.352;2023-11-19T01:58:31;100140.28;;;9.99;100.00
21129;BME280;10722;51.910;8.352;2023-11-19T02:01:17;100127.41;;;10.04;100.00
21129;BME280;10722;51.910;8.352;2023-11-19T02:04:02;100126.50;;;10.02;100.00
21129;BME280;10722;51.910;8.352;2023-11-19T02:06:49;100136.88;;;10.05;100.00
21129;BME280;10722;51.910;8.352;2023-11-19T02:09:36;100121.44;;;10.08;100.00
21129;BME280;10722;51.910;8.352;2023-11-19T02:12:21;100099.88;;;10.06;100.00
21129;BME280;10722;51.910;8.352;2023-11-19T02:15:07;100106.75;;;10.07;100.00
21129;BME280;10722;51.910;8.352;2023-11-19T02:17:52;100111.09;;;10.08;100.00
21129;BME280;10722;51.910;8.352;2023-11-19T02:20:37;100108.53;;;10.11;100.00
21129;BME280;10722;51.910;8.352;2023-11-19T02:23:23;100106.81;;;10.12;100.00
21129;BME280;10722;51.910;8.352;2023-11-19T02:26:25;100099.97;;;10.18;100.00
21129;BME280;10722;51.910;8.352;2023-11-19T02:29:13;100099.94;;;10.15;100.00
21129;BME280;10722;51.910;8.352;2023-11-19T02:31:58;100100.00;;;10.20;100.00
21129;BME280;10722;51.910;8.352;2023-11-19T02:34:44;100094.00;;;10.24;100.00
21129;BME280;10722;51.910;8.352;2023-11-19T02:37:29;100085.41;;;10.26;100.00
21129;BME280;10722;51.910;8.352;2023-11-19T02:40:14;100088.91;;;10.30;100.00
21129;BME280;10722;51.910;8.352;2023-11-19T02:42:59;100094.16;;;10.36;100.00
21129;BME280;10722;51.910;8.352;2023-11-19T02:45:45;100095.03;;;10.44;100.00
21129;BME280;10722;51.910;8.352;2023-11-19T02:48:30;100098.53;;;10.46;100.00
21129;BME280;10722;51.910;8.352;2023-11-19T02:51:15;100096.00;;;10.54;100.00
21129;BME280;10722;51.910;8.352;2023-11-19T02:54:00;100086.53;;;10.58;100.00
21129;BME280;10722;51.910;8.352;2023-11-19T02:56:45;100087.41;;;10.61;100.00
21129;BME280;10722;51.910;8.352;2023-11-19T02:59:30;100093.53;;;10.72;100.00
21129;BME280;10722;51.910;8.352;2023-11-19T03:02:15;100094.47;;;10.84;100.00
21129;BME280;10722;51.910;8.352;2023-11-19T03:05:00;100076.47;;;11.02;100.00
21129;BME280;10722;51.910;8.352;2023-11-19T03:07:45;100084.28;;;11.10;100.00
21129;BME280;10722;51.910;8.352;2023-11-19T03:10:30;100071.34;;;11.11;100.00
21129;BME280;10722;51.910;8.352;2023-11-19T03:13:16;100064.50;;;11.27;100.00
21129;BME280;10722;51.910;8.352;2023-11-19T03:16:01;100044.66;;;11.28;100.00
21129;BME280;10722;51.910;8.352;2023-11-19T03:18:46;100039.50;;;11.29;100.00
21129;BME280;10722;51.910;8.352;2023-11-19T03:21:31;100050.78;;;11.43;100.00
21129;BME280;10722;51.910;8.352;2023-11-19T03:24:17;100035.19;;;11.37;100.00
21129;BME280;10722;51.910;8.352;2023-11-19T03:27:02;100053.34;;;11.45;100.00
21129;BME280;10722;51.910;8.352;2023-11-19T03:29:47;100046.44;;;11.42;100.00
21129;BME280;10722;51.910;8.352;2023-11-19T03:32:32;100037.81;;;11.48;100.00
21129;BME280;10722;51.910;8.352;2023-11-19T03:35:17;100029.22;;;11.61;100.00
21129;BME280;10722;51.910;8.352;2023-11-19T03:38:02;100023.16;;;11.59;100.00
21129;BME280;10722;51.910;8.352;2023-11-19T03:40:47;100022.31;;;11.59;100.00
21129;BME280;10722;51.910;8.352;2023-11-19T03:43:32;100031.81;;;11.63;100.00
21129;BME280;10722;51.910;8.352;2023-11-19T03:46:18;100029.22;;;11.58;100.00
21129;BME280;10722;51.910;8.352;2023-11-19T03:49:03;100020.59;;;11.58;100.00
21129;BME280;10722;51.910;8.352;2023-11-19T03:51:49;100018.00;;;11.64;100.00
21129;BME280;10722;51.910;8.352;2023-11-19T03:54:33;100030.97;;;11.67;100.00
21129;BME280;10722;51.910;8.352;2023-11-19T03:57:18;100030.09;;;11.82;100.00
21129;BME280;10722;51.910;8.352;2023-11-19T04:00:04;100025.81;;;11.81;100.00
21129;BME280;10722;51.910;8.352;2023-11-19T04:02:49;100043.06;;;11.85;100.00
21129;BME280;10722;51.910;8.352;2023-11-19T04:05:35;100042.25;;;11.94;100.00
21129;BME280;10722;51.910;8.352;2023-11-19T04:08:20;100038.81;;;11.98;100.00
21129;BME280;10722;51.910;8.352;2023-11-19T04:11:05;100031.06;;;12.02;100.00
21129;BME280;10722;51.910;8.352;2023-11-19T04:13:51;100021.53;;;11.98;100.00
21129;BME280;10722;51.910;8.352;2023-11-19T04:16:36;100018.94;;;12.00;100.00
21129;BME280;10722;51.910;8.352;2023-11-19T04:19:21;100000.78;;;12.07;100.00
21129;BME280;10722;51.910;8.352;2023-11-19T04:22:10;100004.25;;;12.13;100.00
21129;BME280;10722;51.910;8.352;2023-11-19T04:24:55;99986.09;;;12.11;100.00
21129;BME280;10722;51.910;8.352;2023-11-19T04:27:39;99984.34;;;12.13;100.00
21129;BME280;10722;51.910;8.352;2023-11-19T04:30:24;99972.25;;;12.10;100.00
21129;BME280;10722;51.910;8.352;2023-11-19T04:33:09;99981.75;;;12.10;100.00
21129;BME280;10722;51.910;8.352;2023-11-19T04:35:54;99965.34;;;12.09;100.00
21129;BME280;10722;51.910;8.352;2023-11-19T04:38:39;99961.88;;;12.15;100.00
21129;BME280;10722;51.910;8.352;2023-11-19T04:41:25;99959.31;;;12.06;100.00
21129;BME280;10722;51.910;8.352;2023-11-19T04:44:10;99953.28;;;12.02;100.00
21129;BME280;10722;51.910;8.352;2023-11-19T04:46:55;99935.97;;;12.01;100.00
21129;BME280;10722;51.910;8.352;2023-11-19T04:49:41;99929.09;;;11.94;100.00
21129;BME280;10722;51.910;8.352;2023-11-19T04:52:26;99942.88;;;11.93;100.00
21129;BME280;10722;51.910;8.352;2023-11-19T04:55:12;99925.63;;;11.89;100.00
21129;BME280;10722;51.910;8.352;2023-11-19T04:57:57;99907.47;;;12.00;100.00
21129;BME280;10722;51.910;8.352;2023-11-19T05:00:43;99908.31;;;11.96;100.00
21129;BME280;10722;51.910;8.352;2023-11-19T05:03:28;99910.91;;;11.88;100.00
21129;BME280;10722;51.910;8.352;2023-11-19T05:06:14;99898.81;;;11.93;100.00
21129;BME280;10722;51.910;8.352;2023-11-19T05:08:59;99908.28;;;11.85;100.00
21129;BME280;10722;51.910;8.352;2023-11-19T05:11:48;99922.13;;;11.78;100.00
21129;BME280;10722;51.910;8.352;2023-11-19T05:14:36;99910.91;;;11.77;100.00
21129;BME280;10722;51.910;8.352;2023-11-19T05:17:21;99925.59;;;11.71;100.00
21129;BME280;10722;51.910;8.352;2023-11-19T05:20:07;99924.72;;;11.81;100.00
21129;BME280;10722;51.910;8.352;2023-11-19T05:22:52;99926.47;;;11.77;100.00
21129;BME280;10722;51.910;8.352;2023-11-19T05:25:37;99926.44;;;11.82;100.00
21129;BME280;10722;51.910;8.352;2023-11-19T05:28:22;99929.91;;;11.79;100.00
21129;BME280;10722;51.910;8.352;2023-11-19T05:31:07;99929.91;;;11.78;100.00
21129;BME280;10722;51.910;8.352;2023-11-19T05:33:52;99923.84;;;11.76;100.00
21129;BME280;10722;51.910;8.352;2023-11-19T05:36:37;99920.38;;;11.77;100.00
21129;BME280;10722;51.910;8.352;2023-11-19T05:39:22;99922.97;;;11.77;100.00
21129;BME280;10722;51.910;8.352;2023-11-19T05:42:08;99926.44;;;11.71;100.00
21129;BME280;10722;51.910;8.352;2023-11-19T05:44:53;99931.63;;;11.73;100.00
21129;BME280;10722;51.910;8.352;2023-11-19T05:47:38;99932.50;;;11.72;100.00
21129;BME280;10722;51.910;8.352;2023-11-19T05:50:23;99940.28;;;11.69;100.00
21129;BME280;10722;51.910;8.352;2023-11-19T05:53:08;99947.19;;;11.74;100.00
21129;BME280;10722;51.910;8.352;2023-11-19T05:55:53;99946.34;;;11.83;100.00
21129;BME280;10722;51.910;8.352;2023-11-19T05:58:38;99954.09;;;11.84;100.00
21129;BME280;10722;51.910;8.352;2023-11-19T06:01:23;99949.78;;;11.88;100.00
21129;BME280;10722;51.910;8.352;2023-11-19T06:04:08;99937.69;;;11.84;100.00
21129;BME280;10722;51.910;8.352;2023-11-19T06:06:54;99933.34;;;11.77;100.00
21129;BME280;10722;51.910;8.352;2023-11-19T06:09:39;99938.53;;;11.71;100.00
21129;BME280;10722;51.910;8.352;2023-11-19T06:12:24;99931.63;;;11.66;100.00
21129;BME280;10722;51.910;8.352;2023-11-19T06:15:09;99927.31;;;11.70;100.00
21129;BME280;10722;51.910;8.352;2023-11-19T06:17:54;99914.34;;;11.62;100.00
21129;BME280;10722;51.910;8.352;2023-11-19T06:20:40;99934.22;;;11.62;100.00
21129;BME280;10722;51.910;8.352;2023-11-19T06:23:27;99933.34;;;11.64;100.00
21129;BME280;10722;51.910;8.352;2023-11-19T06:26:12;99917.81;;;11.67;100.00
21129;BME280;10722;51.910;8.352;2023-11-19T06:28:57;99911.75;;;11.73;100.00
21129;BME280;10722;51.910;8.352;2023-11-19T06:31:43;99921.28;;;11.77;100.00
21129;BME280;10722;51.910;8.352;2023-11-19T06:34:28;99910.06;;;11.80;100.00
21129;BME280;10722;51.910;8.352;2023-11-19T06:37:13;99891.91;;;11.80;100.00
21129;BME280;10722;51.910;8.352;2023-11-19T06:39:58;99896.22;;;11.70;100.00
21129;BME280;10722;51.910;8.352;2023-11-19T06:42:42;99913.50;;;11.66;100.00
21129;BME280;10722;51.910;8.352;2023-11-19T06:45:27;99905.72;;;11.76;100.00
21129;BME280;10722;51.910;8.352;2023-11-19T06:48:13;99927.31;;;11.64;100.00
21129;BME280;10722;51.910;8.352;2023-11-19T06:50:58;99910.91;;;11.63;100.00
21129;BME280;10722;51.910;8.352;2023-11-19T06:53:43;99930.78;;;11.72;100.00
21129;BME280;10722;51.910;8.352;2023-11-19T06:56:28;99925.56;;;11.74;100.00
21129;BME280;10722;51.910;8.352;2023-11-19T06:59:13;99929.91;;;11.67;100.00
21129;BME280;10722;51.910;8.352;2023-11-19T07:01:58;99924.72;;;11.65;100.00
21129;BME280;10722;51.910;8.352;2023-11-19T07:04:43;99914.34;;;11.67;100.00
21129;BME280;10722;51.910;8.352;2023-11-19T07:07:28;99906.56;;;11.59;100.00
21129;BME280;10722;51.910;8.352;2023-11-19T07:10:13;99914.34;;;11.59;100.00
21129;BME280;10722;51.910;8.352;2023-11-19T07:12:58;99921.28;;;11.60;100.00
21129;BME280;10722;51.910;8.352;2023-11-19T07:15:43;99920.41;;;11.64;100.00
21129;BME280;10722;51.910;8.352;2023-11-19T07:18:28;99925.59;;;11.61;100.00
21129;BME280;10722;51.910;8.352;2023-11-19T07:21:13;99939.41;;;11.60;100.00
21129;BME280;10722;51.910;8.352;2023-11-19T07:23:57;99936.81;;;11.66;100.00
21129;BME280;10722;51.910;8.352;2023-11-19T07:26:43;99936.81;;;11.57;100.00
21129;BME280;10722;51.910;8.352;2023-11-19T07:29:28;99942.00;;;11.50;100.00
21129;BME280;10722;51.910;8.352;2023-11-19T07:32:14;99954.06;;;11.54;100.00
21129;BME280;10722;51.910;8.352;2023-11-19T07:35:00;99943.72;;;11.55;100.00
21129;BME280;10722;51.910;8.352;2023-11-19T07:37:45;99948.03;;;11.56;100.00
21129;BME280;10722;51.910;8.352;2023-11-19T07:40:30;99947.16;;;11.54;100.00
21129;BME280;10722;51.910;8.352;2023-11-19T07:43:15;99956.69;;;11.61;100.00
21129;BME280;10722;51.910;8.352;2023-11-19T07:46:00;99932.47;;;11.65;100.00
21129;BME280;10722;51.910;8.352;2023-11-19T07:48:45;99951.50;;;11.67;99.62
21129;BME280;10722;51.910;8.352;2023-11-19T07:51:30;99935.94;;;11.71;99.54
21129;BME280;10722;51.910;8.352;2023-11-19T07:54:15;99947.16;;;11.68;99.19
21129;BME280;10722;51.910;8.352;2023-11-19T07:57:00;99950.63;;;11.61;99.64
21129;BME280;10722;51.910;8.352;2023-11-19T07:59:46;99973.94;;;11.56;99.82
21129;BME280;10722;51.910;8.352;2023-11-19T08:02:32;99985.16;;;11.55;100.00
21129;BME280;10722;51.910;8.352;2023-11-19T08:05:17;99983.44;;;11.50;100.00
21129;BME280;10722;51.910;8.352;2023-11-19T08:08:03;99997.25;;;11.52;100.00
21129;BME280;10722;51.910;8.352;2023-11-19T08:10:48;100011.06;;;11.54;100.00
21129;BME280;10722;51.910;8.352;2023-11-19T08:13:33;100020.59;;;11.61;100.00
21129;BME280;10722;51.910;8.352;2023-11-19T08:16:17;100024.03;;;11.67;100.00
21129;BME280;10722;51.910;8.352;2023-11-19T08:19:02;99999.00;;;11.71;100.00
21129;BME280;10722;51.910;8.352;2023-11-19T08:21:47;100002.47;;;11.70;100.00
21129;BME280;10722;51.910;8.352;2023-11-19T08:24:32;100001.59;;;11.71;100.00
21129;BME280;10722;51.910;8.352;2023-11-19T08:27:17;99987.78;;;11.69;99.67
21129;BME280;10722;51.910;8.352;2023-11-19T08:30:02;99989.50;;;11.75;98.89
21129;BME280;10722;51.910;8.352;2023-11-19T08:32:47;100004.19;;;11.73;98.93
21129;BME280;10722;51.910;8.352;2023-11-19T08:35:32;99989.50;;;11.76;98.25
21129;BME280;10722;51.910;8.352;2023-11-19T08:38:18;99990.38;;;11.75;98.50
21129;BME280;10722;51.910;8.352;2023-11-19T08:41:16;99987.81;;;11.80;97.59
21129;BME280;10722;51.910;8.352;2023-11-19T08:44:01;99977.41;;;11.78;97.70
21129;BME280;10722;51.910;8.352;2023-11-19T08:46:49;99987.78;;;11.72;97.85
21129;BME280;10722;51.910;8.352;2023-11-19T08:49:34;100001.59;;;11.73;97.54
21129;BME280;10722;51.910;8.352;2023-11-19T08:52:20;99992.09;;;11.72;97.43
21129;BME280;10722;51.910;8.352;2023-11-19T08:55:06;100002.47;;;11.73;97.65
21129;BME280;10722;51.910;8.352;2023-11-19T08:57:51;100009.38;;;11.76;97.44
21129;BME280;10722;51.910;8.352;2023-11-19T09:00:36;100009.34;;;11.68;97.76
21129;BME280;10722;51.910;8.352;2023-11-19T09:03:21;100007.63;;;11.73;97.49
21129;BME280;10722;51.910;8.352;2023-11-19T09:06:06;100011.97;;;11.79;97.14
21129;BME280;10722;51.910;8.352;2023-11-19T09:08:51;100009.38;;;11.79;96.94
21129;BME280;10722;51.910;8.352;2023-11-19T09:11:36;100004.16;;;11.71;97.00
21129;BME280;10722;51.910;8.352;2023-11-19T09:14:22;100016.28;;;11.74;96.69
21129;BME280;10722;51.910;8.352;2023-11-19T09:17:06;100002.47;;;11.75;96.58
21129;BME280;10722;51.910;8.352;2023-11-19T09:19:51;100007.66;;;11.79;96.33
21129;BME280;10722;51.910;8.352;2023-11-19T09:22:36;100017.16;;;11.82;96.05
21129;BME280;10722;51.910;8.352;2023-11-19T09:25:21;100012.88;;;11.90;96.10
21129;BME280;10722;51.910;8.352;2023-11-19T09:28:06;100016.31;;;11.83;95.79
21129;BME280;10722;51.910;8.352;2023-11-19T09:30:51;100019.78;;;11.88;95.69
21129;BME280;10722;51.910;8.352;2023-11-19T09:33:36;100004.25;;;11.99;95.20
21129;BME280;10722;51.910;8.352;2023-11-19T09:36:21;99996.47;;;11.94;94.76
21129;BME280;10722;51.910;8.352;2023-11-19T09:39:07;99996.47;;;12.00;94.58
21129;BME280;10722;51.910;8.352;2023-11-19T09:41:52;99999.94;;;12.01;94.31
21129;BME280;10722;51.910;8.352;2023-11-19T09:44:38;100004.25;;;12.08;94.34
21129;BME280;10722;51.910;8.352;2023-11-19T09:47:25;99999.03;;;12.05;94.51
21129;BME280;10722;51.910;8.352;2023-11-19T09:50:14;99999.91;;;11.96;94.13
21129;BME280;10722;51.910;8.352;2023-11-19T09:53:01;100006.84;;;11.97;93.96
21129;BME280;10722;51.910;8.352;2023-11-19T09:55:46;99990.41;;;11.98;93.91
21129;BME280;10722;51.910;8.352;2023-11-19T09:58:32;100007.69;;;11.99;94.08
21129;BME280;10722;51.910;8.352;2023-11-19T10:01:17;99995.59;;;12.06;93.98
21129;BME280;10722;51.910;8.352;2023-11-19T10:04:15;99991.28;;;11.96;93.84
21129;BME280;10722;51.910;8.352;2023-11-19T10:07:01;99998.19;;;11.95;93.93
21129;BME280;10722;51.910;8.352;2023-11-19T10:09:46;100000.81;;;12.00;93.88
21129;BME280;10722;51.910;8.352;2023-11-19T10:12:31;99999.91;;;12.10;93.88
21129;BME280;10722;51.910;8.352;2023-11-19T10:15:21;100006.84;;;12.09;93.65
21129;BME280;10722;51.910;8.352;2023-11-19T10:18:07;100012.03;;;12.03;93.45
21129;BME280;10722;51.910;8.352;2023-11-19T10:20:52;99998.19;;;12.04;93.41
21129;BME280;10722;51.910;8.352;2023-11-19T10:23:56;100001.63;;;12.05;93.47
21129;BME280;10722;51.910;8.352;2023-11-19T10:26:41;100002.53;;;12.02;93.52
21129;BME280;10722;51.910;8.352;2023-11-19T10:29:26;100002.53;;;12.08;93.16
21129;BME280;10722;51.910;8.352;2023-11-19T10:32:12;99997.31;;;12.10;93.17
21129;BME280;10722;51.910;8.352;2023-11-19T10:35:11;100002.53;;;12.11;92.87
21129;BME280;10722;51.910;8.352;2023-11-19T10:37:59;99994.75;;;12.15;92.49
21129;BME280;10722;51.910;8.352;2023-11-19T10:40:45;99989.53;;;12.16;92.20
21129;BME280;10722;51.910;8.352;2023-11-19T10:43:29;99988.69;;;12.16;91.88
21129;BME280;10722;51.910;8.352;2023-11-19T10:46:15;99985.22;;;12.15;91.81
21129;BME280;10722;51.910;8.352;2023-11-19T10:49:00;99988.69;;;12.17;91.87
21129;BME280;10722;51.910;8.352;2023-11-19T10:51:46;99984.34;;;12.18;92.10
21129;BME280;10722;51.910;8.352;2023-11-19T10:54:32;99976.59;;;12.19;91.66
21129;BME280;10722;51.910;8.352;2023-11-19T10:57:24;99971.41;;;12.22;91.84
21129;BME280;10722;51.910;8.352;2023-11-19T11:00:13;99961.03;;;12.22;91.41
21129;BME280;10722;51.910;8.352;2023-11-19T11:03:09;99966.22;;;12.19;91.38
21129;BME280;10722;51.910;8.352;2023-11-19T11:05:56;99970.53;;;12.20;91.37
21129;BME280;10722;51.910;8.352;2023-11-19T11:08:41;99971.41;;;12.18;91.51
21129;BME280;10722;51.910;8.352;2023-11-19T11:11:28;99972.28;;;12.14;91.44
21129;BME280;10722;51.910;8.352;2023-11-19T11:14:13;99960.16;;;12.13;91.88
21129;BME280;10722;51.910;8.352;2023-11-19T11:16:59;99963.63;;;12.08;91.89
21129;BME280;10722;51.910;8.352;2023-11-19T11:19:45;99965.38;;;12.11;92.06
21129;BME280;10722;51.910;8.352;2023-11-19T11:22:40;99974.00;;;12.07;92.19
21129;BME280;10722;51.910;8.352;2023-11-19T11:28:48;99983.50;;;12.06;92.57
21129;BME280;10722;51.910;8.352;2023-11-19T11:32:13;99974.84;;;12.10;92.40
21129;BME280;10722;51.910;8.352;2023-11-19T11:35:08;99980.03;;;12.04;92.63
21129;BME280;10722;51.910;8.352;2023-11-19T11:38:04;99987.81;;;12.01;92.97
21129;BME280;10722;51.910;8.352;2023-11-19T11:41:17;99987.84;;;11.97;93.31
21129;BME280;10722;51.910;8.352;2023-11-19T11:44:01;100000.78;;;11.86;93.63
21129;BME280;10722;51.910;8.352;2023-11-19T11:46:53;99999.88;;;11.78;94.48
21129;BME280;10722;51.910;8.352;2023-11-19T11:49:39;100008.56;;;11.86;95.11
21129;BME280;10722;51.910;8.352;2023-11-19T11:52:24;100018.88;;;11.84;95.50
21129;BME280;10722;51.910;8.352;2023-11-19T11:55:09;100010.28;;;11.90;95.73
21129;BME280;10722;51.910;8.352;2023-11-19T11:57:55;100017.22;;;11.94;95.70
21129;BME280;10722;51.910;8.352;2023-11-19T12:00:41;100001.66;;;12.09;95.10
21129;BME280;10722;51.910;8.352;2023-11-19T12:03:27;99974.84;;;12.24;94.12
21129;BME280;10722;51.910;8.352;2023-11-19T12:06:13;99966.19;;;12.31;93.62
21129;BME280;10722;51.910;8.352;2023-11-19T12:09:01;99958.41;;;12.27;93.28
21129;BME280;10722;51.910;8.352;2023-11-19T12:11:47;99952.34;;;12.40;92.99
21129;BME280;10722;51.910;8.352;2023-11-19T12:17:46;99940.22;;;12.33;92.67
21129;BME280;10722;51.910;8.352;2023-11-19T12:20:33;99947.19;;;12.31;92.28
21129;BME280;10722;51.910;8.352;2023-11-19T12:23:19;99939.38;;;12.45;92.52
21129;BME280;10722;51.910;8.352;2023-11-19T12:26:04;99939.25;;;12.72;91.83
21129;BME280;10722;51.910;8.352;2023-11-19T12:28:58;99917.53;;;12.92;91.17
21129;BME280;10722;51.910;8.352;2023-11-19T12:31:44;99921.94;;;12.82;90.80
21129;BME280;10722;51.910;8.352;2023-11-19T12:34:30;99909.00;;;12.70;90.25
21129;BME280;10722;51.910;8.352;2023-11-19T12:37:15;99898.63;;;12.67;90.34
21129;BME280;10722;51.910;8.352;2023-11-19T12:40:00;99886.56;;;12.55;89.88
21129;BME280;10722;51.910;8.352;2023-11-19T12:42:54;99901.28;;;12.51;90.19
21129;BME280;10722;51.910;8.352;2023-11-19T12:45:40;99889.19;;;12.49;90.40
21129;BME280;10722;51.910;8.352;2023-11-19T12:48:25;99886.63;;;12.47;90.17
21129;BME280;10722;51.910;8.352;2023-11-19T12:51:10;99891.81;;;12.38;90.09
21129;BME280;10722;51.910;8.352;2023-11-19T12:53:58;99891.81;;;12.38;90.46
21129;BME280;10722;51.910;8.352;2023-11-19T12:56:53;99891.84;;;12.37;90.98
21129;BME280;10722;51.910;8.352;2023-11-19T12:59:38;99913.47;;;12.31;91.04
21129;BME280;10722;51.910;8.352;2023-11-19T13:02:44;99902.22;;;12.24;91.30
21129;BME280;10722;51.910;8.352;2023-11-19T13:08:14;99923.84;;;12.25;92.02
21129;BME280;10722;51.910;8.352;2023-11-19T13:10:59;99930.72;;;12.38;92.23
21129;BME280;10722;51.910;8.352;2023-11-19T13:14:13;99935.00;;;12.56;92.49
21129;BME280;10722;51.910;8.352;2023-11-19T13:16:58;99916.69;;;12.91;91.11
21129;BME280;10722;51.910;8.352;2023-11-19T13:19:47;99888.19;;;12.81;90.25
21129;BME280;10722;51.910;8.352;2023-11-19T13:22:32;99879.50;;;12.83;90.04
21129;BME280;10722;51.910;8.352;2023-11-19T13:25:16;99884.72;;;12.85;90.18
21129;BME280;10722;51.910;8.352;2023-11-19T13:28:01;99884.69;;;12.91;90.36
21129;BME280;10722;51.910;8.352;2023-11-19T13:30:47;99881.34;;;12.67;90.50
21129;BME280;10722;51.910;8.352;2023-11-19T13:33:32;99906.41;;;12.68;90.88
21129;BME280;10722;51.910;8.352;2023-11-19T13:36:17;99879.66;;;12.57;90.63
21129;BME280;10722;51.910;8.352;2023-11-19T13:39:02;99882.19;;;12.66;91.09
21129;BME280;10722;51.910;8.352;2023-11-19T13:41:47;99870.94;;;12.69;90.60
21129;BME280;10722;51.910;8.352;2023-11-19T13:44:32;99861.41;;;12.71;89.82
21129;BME280;10722;51.910;8.352;2023-11-19T13:47:17;99855.34;;;12.72;89.95
21129;BME280;10722;51.910;8.352;2023-11-19T13:50:02;99853.63;;;12.71;89.75
21129;BME280;10722;51.910;8.352;2023-11-19T13:52:48;99857.06;;;12.76;89.37
21129;BME280;10722;51.910;8.352;2023-11-19T13:55:32;99829.41;;;12.73;88.79
21129;BME280;10722;51.910;8.352;2023-11-19T13:58:17;99836.50;;;12.36;88.71
21129;BME280;10722;51.910;8.352;2023-11-19T14:01:03;99831.31;;;12.36;88.83
21129;BME280;10722;51.910;8.352;2023-11-19T14:03:48;99822.69;;;12.22;89.13
21129;BME280;10722;51.910;8.352;2023-11-19T14:06:33;99844.34;;;12.18;89.47
21129;BME280;10722;51.910;8.352;2023-11-19T14:09:18;99835.59;;;12.48;89.23
21129;BME280;10722;51.910;8.352;2023-11-19T14:12:04;99818.38;;;12.28;88.63
21129;BME280;10722;51.910;8.352;2023-11-19T14:14:49;99826.19;;;12.18;89.10
21129;BME280;10722;51.910;8.352;2023-11-19T14:17:34;99840.91;;;12.11;89.30
21129;BME280;10722;51.910;8.352;2023-11-19T14:20:19;99839.16;;;12.11;88.91
21129;BME280;10722;51.910;8.352;2023-11-19T14:23:04;99836.56;;;12.10;88.88
21129;BME280;10722;51.910;8.352;2023-11-19T14:25:49;99832.25;;;12.20;88.22
21129;BME280;10722;51.910;8.352;2023-11-19T14:28:34;99823.56;;;12.27;87.83
21129;BME280;10722;51.910;8.352;2023-11-19T14:31:19;99819.22;;;12.27;87.23
21129;BME280;10722;51.910;8.352;2023-11-19T14:34:04;99813.19;;;12.27;87.05
21129;BME280;10722;51.910;8.352;2023-11-19T14:36:49;99811.41;;;12.38;86.82
21129;BME280;10722;51.910;8.352;2023-11-19T14:39:34;99807.91;;;12.47;86.48
21129;BME280;10722;51.910;8.352;2023-11-19T14:42:19;99814.84;;;12.43;86.98